Woodgate, New York
Current Conditions -  °F | °C
As of 3:53 PM on Sunday 23 Nov 2014 (Local Time) from KRME Reporting Station
Overcast Overcast  
Wind Chill: 49°   Ceiling: 4500
Heat Index: 49°   Visibility: 10mi
Dew Point: 40°   Wind: 3mph
Humidity: 71%   Direction: 130°SE
Pressure: 30.04"   Gusts: NA
Location:  43.52°N, 75.16°W
Report Text: KRME 232053Z 13003KT 10SM OVC045 09/04 A3004 RMK AO2 SLP174 60000 T00940044 56014
Loading
Personal Weather Stations






























Interactive Weather Map New forecast layout! Learn more

10-Day Weather Forecast

Advertisements
Track Severe Weather on mobile